sensor_id;sensor_type;location;lat;lon;timestamp;P1;durP1;ratioP1;P2;durP2;ratioP2
35225;SDS011;21813;49.686;21.766;2023-02-10T00:26:35;37.15;;;17.83;;
35225;SDS011;21813;49.686;21.766;2023-02-10T00:29:03;47.15;;;21.60;;
35225;SDS011;21813;49.686;21.766;2023-02-10T00:31:28;48.35;;;21.25;;
35225;SDS011;21813;49.686;21.766;2023-02-10T00:37:11;46.35;;;20.75;;
35225;SDS011;21813;49.686;21.766;2023-02-10T00:40:01;54.80;;;23.10;;
35225;SDS011;21813;49.686;21.766;2023-02-10T00:48:25;52.13;;;22.00;;
35225;SDS011;21813;49.686;21.766;2023-02-10T01:41:57;32.00;;;16.42;;
35225;SDS011;21813;49.686;21.766;2023-02-10T01:46:52;33.42;;;15.88;;
35225;SDS011;21813;49.686;21.766;2023-02-10T01:49:24;33.30;;;16.35;;
35225;SDS011;21813;49.686;21.766;2023-02-10T01:52:12;39.28;;;18.23;;
35225;SDS011;21813;49.686;21.766;2023-02-10T01:54:43;30.65;;;16.75;;
35225;SDS011;21813;49.686;21.766;2023-02-10T01:57:12;37.30;;;16.95;;
35225;SDS011;21813;49.686;21.766;2023-02-10T02:02:28;32.72;;;17.05;;
35225;SDS011;21813;49.686;21.766;2023-02-10T02:04:59;35.00;;;17.98;;
35225;SDS011;21813;49.686;21.766;2023-02-10T02:07:26;41.60;;;19.05;;
35225;SDS011;21813;49.686;21.766;2023-02-10T02:10:01;39.63;;;18.80;;
35225;SDS011;21813;49.686;21.766;2023-02-10T02:23:27;34.95;;;17.85;;
35225;SDS011;21813;49.686;21.766;2023-02-10T02:29:22;35.88;;;18.30;;
35225;SDS011;21813;49.686;21.766;2023-02-10T02:34:59;39.35;;;16.88;;
35225;SDS011;21813;49.686;21.766;2023-02-10T03:51:39;36.80;;;17.45;;
35225;SDS011;21813;49.686;21.766;2023-02-10T07:30:29;72.28;;;29.58;;
35225;SDS011;21813;49.686;21.766;2023-02-10T07:45:46;57.17;;;28.35;;
35225;SDS011;21813;49.686;21.766;2023-02-10T07:48:25;54.05;;;26.63;;
35225;SDS011;21813;49.686;21.766;2023-02-10T07:50:55;52.28;;;26.90;;
35225;SDS011;21813;49.686;21.766;2023-02-10T07:53:30;58.95;;;29.08;;
35225;SDS011;21813;49.686;21.766;2023-02-10T07:56:00;55.53;;;27.15;;
35225;SDS011;21813;49.686;21.766;2023-02-10T07:58:44;52.58;;;26.75;;
35225;SDS011;21813;49.686;21.766;2023-02-10T08:37:15;55.90;;;26.35;;
35225;SDS011;21813;49.686;21.766;2023-02-10T08:39:50;55.25;;;28.00;;
35225;SDS011;21813;49.686;21.766;2023-02-10T08:42:18;61.60;;;28.77;;
35225;SDS011;21813;49.686;21.766;2023-02-10T08:44:44;61.10;;;29.67;;
35225;SDS011;21813;49.686;21.766;2023-02-10T08:47:10;58.60;;;27.00;;
35225;SDS011;21813;49.686;21.766;2023-02-10T08:49:40;59.83;;;28.40;;
35225;SDS011;21813;49.686;21.766;2023-02-10T08:52:06;61.47;;;28.35;;
35225;SDS011;21813;49.686;21.766;2023-02-10T08:54:32;63.75;;;27.05;;
35225;SDS011;21813;49.686;21.766;2023-02-10T08:56:58;59.60;;;28.05;;
35225;SDS011;21813;49.686;21.766;2023-02-10T08:59:28;53.83;;;26.65;;
35225;SDS011;21813;49.686;21.766;2023-02-10T09:01:56;57.72;;;27.60;;
35225;SDS011;21813;49.686;21.766;2023-02-10T09:15:54;54.67;;;25.20;;
35225;SDS011;21813;49.686;21.766;2023-02-10T09:38:48;54.20;;;27.98;;
35225;SDS011;21813;49.686;21.766;2023-02-10T09:41:25;57.38;;;29.02;;
35225;SDS011;21813;49.686;21.766;2023-02-10T10:36:00;50.38;;;26.05;;
35225;SDS011;21813;49.686;21.766;2023-02-10T10:38:34;48.45;;;25.85;;
35225;SDS011;21813;49.686;21.766;2023-02-10T11:18:35;43.97;;;25.27;;
35225;SDS011;21813;49.686;21.766;2023-02-10T11:23:45;55.20;;;26.48;;
35225;SDS011;21813;49.686;21.766;2023-02-10T11:26:24;53.55;;;24.95;;
35225;SDS011;21813;49.686;21.766;2023-02-10T11:28:52;48.97;;;24.90;;
35225;SDS011;21813;49.686;21.766;2023-02-10T11:51:54;48.00;;;25.85;;
35225;SDS011;21813;49.686;21.766;2023-02-10T11:54:24;50.45;;;26.05;;
35225;SDS011;21813;49.686;21.766;2023-02-10T12:11:32;51.90;;;25.77;;
35225;SDS011;21813;49.686;21.766;2023-02-10T12:19:47;50.63;;;26.08;;
35225;SDS011;21813;49.686;21.766;2023-02-10T12:25:09;63.72;;;29.70;;
35225;SDS011;21813;49.686;21.766;2023-02-10T12:44:10;56.20;;;26.05;;
35225;SDS011;21813;49.686;21.766;2023-02-10T12:47:09;45.70;;;24.00;;
35225;SDS011;21813;49.686;21.766;2023-02-10T12:53:16;45.30;;;24.98;;
35225;SDS011;21813;49.686;21.766;2023-02-10T12:58:25;45.67;;;25.33;;
35225;SDS011;21813;49.686;21.766;2023-02-10T13:03:31;49.72;;;25.73;;
35225;SDS011;21813;49.686;21.766;2023-02-10T13:08:34;59.33;;;30.27;;
35225;SDS011;21813;49.686;21.766;2023-02-10T13:11:09;50.38;;;27.73;;
35225;SDS011;21813;49.686;21.766;2023-02-10T13:14:52;55.33;;;25.20;;
35225;SDS011;21813;49.686;21.766;2023-02-10T13:18:28;48.83;;;24.77;;
35225;SDS011;21813;49.686;21.766;2023-02-10T13:36:13;51.65;;;26.55;;
35225;SDS011;21813;49.686;21.766;2023-02-10T13:38:50;55.85;;;28.65;;
35225;SDS011;21813;49.686;21.766;2023-02-10T13:41:26;55.30;;;28.15;;
35225;SDS011;21813;49.686;21.766;2023-02-10T13:44:22;53.53;;;28.50;;
35225;SDS011;21813;49.686;21.766;2023-02-10T13:49:53;49.40;;;27.45;;
35225;SDS011;21813;49.686;21.766;2023-02-10T13:52:23;56.05;;;28.45;;
35225;SDS011;21813;49.686;21.766;2023-02-10T13:55:00;49.88;;;28.40;;
35225;SDS011;21813;49.686;21.766;2023-02-10T13:57:33;62.40;;;30.20;;
35225;SDS011;21813;49.686;21.766;2023-02-10T14:00:12;57.53;;;31.30;;
35225;SDS011;21813;49.686;21.766;2023-02-10T14:02:40;62.50;;;30.90;;
35225;SDS011;21813;49.686;21.766;2023-02-10T14:07:59;60.50;;;31.05;;
35225;SDS011;21813;49.686;21.766;2023-02-10T14:10:37;64.18;;;32.28;;
35225;SDS011;21813;49.686;21.766;2023-02-10T14:15:34;70.32;;;35.28;;
35225;SDS011;21813;49.686;21.766;2023-02-10T14:18:05;74.18;;;37.05;;
35225;SDS011;21813;49.686;21.766;2023-02-10T14:20:56;68.82;;;33.45;;
35225;SDS011;21813;49.686;21.766;2023-02-10T14:23:25;59.47;;;31.67;;
35225;SDS011;21813;49.686;21.766;2023-02-10T14:26:00;63.57;;;32.17;;
35225;SDS011;21813;49.686;21.766;2023-02-10T14:28:37;62.28;;;30.35;;
35225;SDS011;21813;49.686;21.766;2023-02-10T14:31:13;60.28;;;31.17;;
35225;SDS011;21813;49.686;21.766;2023-02-10T14:33:56;63.30;;;30.33;;
35225;SDS011;21813;49.686;21.766;2023-02-10T14:36:24;60.70;;;31.05;;
35225;SDS011;21813;49.686;21.766;2023-02-10T14:38:53;61.55;;;32.50;;
35225;SDS011;21813;49.686;21.766;2023-02-10T14:41:23;64.78;;;32.88;;
35225;SDS011;21813;49.686;21.766;2023-02-10T14:43:52;63.10;;;32.33;;
35225;SDS011;21813;49.686;21.766;2023-02-10T14:46:30;67.35;;;32.90;;
35225;SDS011;21813;49.686;21.766;2023-02-10T14:48:58;64.13;;;30.08;;
35225;SDS011;21813;49.686;21.766;2023-02-10T14:51:29;56.30;;;28.13;;
35225;SDS011;21813;49.686;21.766;2023-02-10T14:54:06;63.67;;;31.30;;
35225;SDS011;21813;49.686;21.766;2023-02-10T14:56:34;66.50;;;33.45;;
35225;SDS011;21813;49.686;21.766;2023-02-10T14:58:59;68.80;;;33.53;;
35225;SDS011;21813;49.686;21.766;2023-02-10T15:07:46;65.28;;;34.17;;
35225;SDS011;21813;49.686;21.766;2023-02-10T15:22:42;65.60;;;32.92;;
35225;SDS011;21813;49.686;21.766;2023-02-10T15:25:58;67.15;;;34.58;;
35225;SDS011;21813;49.686;21.766;2023-02-10T15:28:56;52.63;;;25.57;;
35225;SDS011;21813;49.686;21.766;2023-02-10T15:31:42;67.55;;;34.40;;
35225;SDS011;21813;49.686;21.766;2023-02-10T15:34:25;62.85;;;33.53;;
35225;SDS011;21813;49.686;21.766;2023-02-10T15:37:03;66.38;;;32.78;;
35225;SDS011;21813;49.686;21.766;2023-02-10T15:39:52;66.82;;;33.70;;
35225;SDS011;21813;49.686;21.766;2023-02-10T15:42:22;74.40;;;35.85;;
35225;SDS011;21813;49.686;21.766;2023-02-10T15:47:42;64.70;;;32.10;;
35225;SDS011;21813;49.686;21.766;2023-02-10T15:50:19;65.53;;;32.53;;
35225;SDS011;21813;49.686;21.766;2023-02-10T15:52:47;69.15;;;34.47;;
35225;SDS011;21813;49.686;21.766;2023-02-10T15:55:16;64.28;;;32.03;;
35225;SDS011;21813;49.686;21.766;2023-02-10T15:57:53;66.60;;;31.67;;
35225;SDS011;21813;49.686;21.766;2023-02-10T17:20:15;77.40;;;38.35;;
35225;SDS011;21813;49.686;21.766;2023-02-10T17:22:45;71.35;;;35.03;;
35225;SDS011;21813;49.686;21.766;2023-02-10T17:25:10;78.93;;;37.53;;
35225;SDS011;21813;49.686;21.766;2023-02-10T17:27:37;77.88;;;38.33;;
35225;SDS011;21813;49.686;21.766;2023-02-10T17:33:56;81.78;;;39.20;;
35225;SDS011;21813;49.686;21.766;2023-02-10T17:36:46;77.55;;;36.88;;
35225;SDS011;21813;49.686;21.766;2023-02-10T17:39:18;76.28;;;37.97;;
35225;SDS011;21813;49.686;21.766;2023-02-10T17:42:05;71.20;;;37.67;;
35225;SDS011;21813;49.686;21.766;2023-02-10T17:44:31;82.05;;;39.88;;
35225;SDS011;21813;49.686;21.766;2023-02-10T17:46:59;83.55;;;41.60;;
35225;SDS011;21813;49.686;21.766;2023-02-10T17:49:26;82.40;;;40.75;;
35225;SDS011;21813;49.686;21.766;2023-02-10T17:52:03;78.85;;;40.33;;
35225;SDS011;21813;49.686;21.766;2023-02-10T17:54:29;81.72;;;41.03;;
35225;SDS011;21813;49.686;21.766;2023-02-10T17:57:01;96.03;;;42.03;;
35225;SDS011;21813;49.686;21.766;2023-02-10T17:59:27;89.28;;;44.53;;
35225;SDS011;21813;49.686;21.766;2023-02-10T18:01:56;95.85;;;45.83;;
35225;SDS011;21813;49.686;21.766;2023-02-10T18:04:23;92.65;;;45.70;;
35225;SDS011;21813;49.686;21.766;2023-02-10T18:06:51;89.70;;;44.97;;
35225;SDS011;21813;49.686;21.766;2023-02-10T18:09:17;94.22;;;45.65;;
35225;SDS011;21813;49.686;21.766;2023-02-10T18:11:44;101.40;;;46.05;;
35225;SDS011;21813;49.686;21.766;2023-02-10T18:14:10;100.88;;;47.58;;
35225;SDS011;21813;49.686;21.766;2023-02-10T18:16:37;95.22;;;46.67;;
35225;SDS011;21813;49.686;21.766;2023-02-10T18:19:04;99.13;;;46.40;;
35225;SDS011;21813;49.686;21.766;2023-02-10T18:21:37;100.63;;;45.08;;
35225;SDS011;21813;49.686;21.766;2023-02-10T18:24:04;91.75;;;43.15;;
35225;SDS011;21813;49.686;21.766;2023-02-10T18:26:34;94.78;;;43.83;;
35225;SDS011;21813;49.686;21.766;2023-02-10T18:29:03;98.97;;;44.95;;
35225;SDS011;21813;49.686;21.766;2023-02-10T18:31:43;94.05;;;44.58;;
35225;SDS011;21813;49.686;21.766;2023-02-10T18:34:11;97.30;;;43.92;;
35225;SDS011;21813;49.686;21.766;2023-02-10T18:36:37;88.15;;;42.55;;
35225;SDS011;21813;49.686;21.766;2023-02-10T18:39:10;88.43;;;42.40;;
35225;SDS011;21813;49.686;21.766;2023-02-10T18:41:40;95.45;;;44.75;;
35225;SDS011;21813;49.686;21.766;2023-02-10T18:44:12;97.60;;;45.08;;
35225;SDS011;21813;49.686;21.766;2023-02-10T18:46:38;97.30;;;46.38;;
35225;SDS011;21813;49.686;21.766;2023-02-10T18:49:06;97.43;;;44.35;;
35225;SDS011;21813;49.686;21.766;2023-02-10T18:51:31;83.50;;;41.63;;
35225;SDS011;21813;49.686;21.766;2023-02-10T18:53:59;85.20;;;43.70;;
35225;SDS011;21813;49.686;21.766;2023-02-10T18:56:25;86.93;;;42.58;;
35225;SDS011;21813;49.686;21.766;2023-02-10T18:59:09;92.47;;;42.55;;
35225;SDS011;21813;49.686;21.766;2023-02-10T19:01:35;82.60;;;40.83;;
35225;SDS011;21813;49.686;21.766;2023-02-10T19:04:02;86.28;;;41.13;;
35225;SDS011;21813;49.686;21.766;2023-02-10T19:06:31;89.43;;;43.17;;
35225;SDS011;21813;49.686;21.766;2023-02-10T19:08:58;83.18;;;42.83;;
35225;SDS011;21813;49.686;21.766;2023-02-10T19:11:24;85.05;;;41.53;;
35225;SDS011;21813;49.686;21.766;2023-02-10T19:13:50;91.78;;;42.85;;
35225;SDS011;21813;49.686;21.766;2023-02-10T19:16:16;76.93;;;41.47;;
35225;SDS011;21813;49.686;21.766;2023-02-10T19:18:42;94.53;;;43.55;;
35225;SDS011;21813;49.686;21.766;2023-02-10T19:21:08;92.88;;;43.80;;
35225;SDS011;21813;49.686;21.766;2023-02-10T19:23:40;90.20;;;44.47;;
35225;SDS011;21813;49.686;21.766;2023-02-10T19:26:08;91.38;;;46.22;;
35225;SDS011;21813;49.686;21.766;2023-02-10T19:28:36;94.45;;;44.83;;
35225;SDS011;21813;49.686;21.766;2023-02-10T19:31:02;89.80;;;43.78;;
35225;SDS011;21813;49.686;21.766;2023-02-10T19:33:32;91.28;;;44.60;;
35225;SDS011;21813;49.686;21.766;2023-02-10T19:36:07;92.57;;;42.60;;
35225;SDS011;21813;49.686;21.766;2023-02-10T19:38:39;72.38;;;32.38;;
35225;SDS011;21813;49.686;21.766;2023-02-10T19:41:06;89.63;;;42.80;;
35225;SDS011;21813;49.686;21.766;2023-02-10T19:43:35;99.10;;;44.20;;
35225;SDS011;21813;49.686;21.766;2023-02-10T19:46:01;87.22;;;41.47;;
35225;SDS011;21813;49.686;21.766;2023-02-10T19:48:28;87.45;;;40.55;;
35225;SDS011;21813;49.686;21.766;2023-02-10T19:51:17;83.40;;;40.03;;
35225;SDS011;21813;49.686;21.766;2023-02-10T19:53:51;96.32;;;45.08;;
35225;SDS011;21813;49.686;21.766;2023-02-10T19:56:44;83.28;;;40.30;;
35225;SDS011;21813;49.686;21.766;2023-02-10T19:59:20;80.80;;;40.08;;
35225;SDS011;21813;49.686;21.766;2023-02-10T20:02:15;77.93;;;40.15;;
35225;SDS011;21813;49.686;21.766;2023-02-10T20:04:43;86.43;;;39.75;;
35225;SDS011;21813;49.686;21.766;2023-02-10T20:07:09;74.63;;;38.00;;
35225;SDS011;21813;49.686;21.766;2023-02-10T20:09:35;84.18;;;40.55;;
35225;SDS011;21813;49.686;21.766;2023-02-10T20:12:02;84.97;;;41.83;;
35225;SDS011;21813;49.686;21.766;2023-02-10T20:14:29;77.68;;;40.55;;
35225;SDS011;21813;49.686;21.766;2023-02-10T20:16:54;79.18;;;40.92;;
35225;SDS011;21813;49.686;21.766;2023-02-10T20:19:21;83.28;;;41.20;;
35225;SDS011;21813;49.686;21.766;2023-02-10T20:21:47;93.53;;;42.80;;
35225;SDS011;21813;49.686;21.766;2023-02-10T20:24:13;85.80;;;41.92;;
35225;SDS011;21813;49.686;21.766;2023-02-10T20:26:39;85.63;;;41.45;;
35225;SDS011;21813;49.686;21.766;2023-02-10T20:29:06;86.53;;;42.28;;
35225;SDS011;21813;49.686;21.766;2023-02-10T20:31:44;84.70;;;41.30;;
35225;SDS011;21813;49.686;21.766;2023-02-10T20:34:14;78.13;;;41.15;;
35225;SDS011;21813;49.686;21.766;2023-02-10T20:36:45;80.63;;;41.50;;
35225;SDS011;21813;49.686;21.766;2023-02-10T20:39:16;81.13;;;41.50;;
35225;SDS011;21813;49.686;21.766;2023-02-10T20:41:42;81.20;;;39.72;;
35225;SDS011;21813;49.686;21.766;2023-02-10T20:44:10;78.40;;;39.17;;
35225;SDS011;21813;49.686;21.766;2023-02-10T20:46:35;81.47;;;39.70;;
35225;SDS011;21813;49.686;21.766;2023-02-10T20:49:03;79.60;;;39.05;;
35225;SDS011;21813;49.686;21.766;2023-02-10T20:51:29;81.60;;;41.63;;
35225;SDS011;21813;49.686;21.766;2023-02-10T20:53:58;76.75;;;38.40;;
35225;SDS011;21813;49.686;21.766;2023-02-10T20:56:24;74.32;;;39.00;;
35225;SDS011;21813;49.686;21.766;2023-02-10T20:58:51;85.78;;;41.22;;
35225;SDS011;21813;49.686;21.766;2023-02-10T21:01:17;84.63;;;39.83;;
35225;SDS011;21813;49.686;21.766;2023-02-10T21:03:46;83.32;;;41.85;;
35225;SDS011;21813;49.686;21.766;2023-02-10T21:06:14;83.20;;;39.58;;
35225;SDS011;21813;49.686;21.766;2023-02-10T21:08:47;79.72;;;38.80;;
35225;SDS011;21813;49.686;21.766;2023-02-10T21:11:14;81.85;;;38.88;;
35225;SDS011;21813;49.686;21.766;2023-02-10T21:13:44;79.78;;;38.53;;
35225;SDS011;21813;49.686;21.766;2023-02-10T21:16:10;75.03;;;38.15;;
35225;SDS011;21813;49.686;21.766;2023-02-10T21:18:38;77.30;;;38.13;;
35225;SDS011;21813;49.686;21.766;2023-02-10T21:21:07;77.10;;;38.10;;
35225;SDS011;21813;49.686;21.766;2023-02-10T21:26:01;74.20;;;37.92;;
35225;SDS011;21813;49.686;21.766;2023-02-10T21:28:33;85.77;;;38.20;;
35225;SDS011;21813;49.686;21.766;2023-02-10T21:31:07;87.07;;;40.50;;
35225;SDS011;21813;49.686;21.766;2023-02-10T21:33:42;75.32;;;37.53;;
35225;SDS011;21813;49.686;21.766;2023-02-10T21:36:27;75.10;;;36.90;;
35225;SDS011;21813;49.686;21.766;2023-02-10T21:38:56;70.70;;;35.70;;
35225;SDS011;21813;49.686;21.766;2023-02-10T21:41:24;76.18;;;37.17;;
35225;SDS011;21813;49.686;21.766;2023-02-10T21:44:19;73.22;;;35.90;;
35225;SDS011;21813;49.686;21.766;2023-02-10T21:46:48;68.68;;;35.38;;
35225;SDS011;21813;49.686;21.766;2023-02-10T21:49:19;72.22;;;36.15;;
35225;SDS011;21813;49.686;21.766;2023-02-10T21:51:46;72.43;;;34.40;;
35225;SDS011;21813;49.686;21.766;2023-02-10T21:54:13;76.82;;;36.80;;
35225;SDS011;21813;49.686;21.766;2023-02-10T21:56:39;71.85;;;34.13;;
35225;SDS011;21813;49.686;21.766;2023-02-10T21:59:06;67.95;;;35.05;;
35225;SDS011;21813;49.686;21.766;2023-02-10T22:01:32;71.43;;;34.92;;
35225;SDS011;21813;49.686;21.766;2023-02-10T22:04:00;68.22;;;33.70;;
35225;SDS011;21813;49.686;21.766;2023-02-10T22:06:29;71.00;;;36.90;;
35225;SDS011;21813;49.686;21.766;2023-02-10T22:08:56;69.78;;;34.88;;
35225;SDS011;21813;49.686;21.766;2023-02-10T22:11:25;74.95;;;36.45;;
35225;SDS011;21813;49.686;21.766;2023-02-10T22:13:53;72.00;;;35.05;;
35225;SDS011;21813;49.686;21.766;2023-02-10T22:16:24;75.03;;;35.45;;
35225;SDS011;21813;49.686;21.766;2023-02-10T22:19:14;76.32;;;37.50;;
35225;SDS011;21813;49.686;21.766;2023-02-10T22:30:16;64.35;;;33.17;;
35225;SDS011;21813;49.686;21.766;2023-02-10T22:32:42;69.35;;;33.17;;
35225;SDS011;21813;49.686;21.766;2023-02-10T22:35:10;67.13;;;33.72;;
35225;SDS011;21813;49.686;21.766;2023-02-10T22:37:35;70.30;;;33.78;;
35225;SDS011;21813;49.686;21.766;2023-02-10T22:40:01;64.22;;;33.47;;
35225;SDS011;21813;49.686;21.766;2023-02-10T22:42:27;62.72;;;32.67;;
35225;SDS011;21813;49.686;21.766;2023-02-10T22:44:53;65.07;;;31.13;;
35225;SDS011;21813;49.686;21.766;2023-02-10T22:47:19;60.78;;;32.45;;
35225;SDS011;21813;49.686;21.766;2023-02-10T22:49:48;66.07;;;32.22;;
35225;SDS011;21813;49.686;21.766;2023-02-10T22:52:18;72.55;;;33.55;;
35225;SDS011;21813;49.686;21.766;2023-02-10T22:54:45;69.75;;;33.03;;
35225;SDS011;21813;49.686;21.766;2023-02-10T22:57:14;62.03;;;30.80;;
35225;SDS011;21813;49.686;21.766;2023-02-10T22:59:40;65.85;;;31.48;;
35225;SDS011;21813;49.686;21.766;2023-02-10T23:02:07;61.20;;;31.55;;
35225;SDS011;21813;49.686;21.766;2023-02-10T23:04:34;61.20;;;29.77;;
35225;SDS011;21813;49.686;21.766;2023-02-10T23:07:00;65.60;;;30.80;;
35225;SDS011;21813;49.686;21.766;2023-02-10T23:09:27;61.10;;;31.38;;
35225;SDS011;21813;49.686;21.766;2023-02-10T23:11:53;61.10;;;30.05;;
35225;SDS011;21813;49.686;21.766;2023-02-10T23:14:20;61.90;;;31.52;;
35225;SDS011;21813;49.686;21.766;2023-02-10T23:16:49;60.28;;;31.45;;
35225;SDS011;21813;49.686;21.766;2023-02-10T23:19:19;60.28;;;31.58;;
35225;SDS011;21813;49.686;21.766;2023-02-10T23:24:50;58.70;;;30.67;;
35225;SDS011;21813;49.686;21.766;2023-02-10T23:37:47;61.17;;;30.70;;
35225;SDS011;21813;49.686;21.766;2023-02-10T23:52:24;64.70;;;31.33;;
